Latest Weather Observations for Collie East

IDW60801

Issued at 10:02 pm WST Thursday 29 January 2015 (issued every 30 minutes, with the page automatically refreshed every 10 minutes)

About weather observations | Map of weather stations | Latest weather observations for WA | Other Formats
Station Details ID: 009994 Name: COLLIE EAST Lat: -33.36 Lon: 116.17 Height: 200.0 m
Data from the previous 72 hours. | See also: Recent months at Collie East
Date/Time
WST
Temp
°C
App
Temp
°C
Dew
Point
Rel
Hum
%
Delta-T
°C
Wind Press
QNH
hPa
Press
MSL
hPa
Rain
since 9 am
mm
Dir
 
Spd
km/h
Gust
km/h
Spd
kts
Gust
kts
29/10:00pm 22.3 22.1 15.6 66 4.0 SE 11 20 6 11 - - 0.2
29/09:30pm 22.6 22.3 13.4 56 5.4 SSE 7 13 4 7 - - 0.2
29/09:00pm 22.8 22.6 13.0 54 5.7 SSE 6 13 3 7 - - 0.2
29/08:30pm 24.1 23.3 13.0 50 6.5 SE 9 15 5 8 - - 0.2
29/08:00pm 24.5 23.0 13.1 49 6.7 SE 13 30 7 16 - - 0.2
29/07:30pm 23.8 23.7 13.9 54 5.9 S 7 11 4 6 - - 0.2
29/07:00pm 24.5 24.2 13.4 50 6.5 S 7 13 4 7 - - 0.2
29/06:30pm 23.9 21.6 14.0 54 5.9 ESE 19 30 10 16 - - 0.2
29/06:00pm 25.6 24.6 14.7 51 6.6 NE 13 20 7 11 - - 0.2
29/05:30pm 26.7 25.1 13.8 45 7.7 N 15 26 8 14 - - 0.2
29/05:29pm 26.8 25.6 13.9 45 7.7 N 13 26 7 14 - - 0.2
29/05:00pm 31.8 30.4 13.5 32 11.1 SW 13 20 7 11 - - 0.2
29/04:30pm 34.0 32.1 12.9 28 12.8 S 15 26 8 14 - - 0.2
29/04:00pm 35.2 34.9 14.5 29 12.9 S 9 24 5 13 - - 0.2
29/03:30pm 36.8 35.6 11.6 22 15.2 WNW 9 19 5 10 - - 0.2
29/03:00pm 35.4 34.8 11.7 23 14.2 S 6 11 3 6 - - 0.2
29/02:30pm 35.3 33.9 11.0 23 14.4 ESE 9 20 5 11 - - 0.2
29/02:00pm 35.4 33.8 11.7 23 14.2 N 11 19 6 10 - - 0.2
29/01:30pm 35.6 34.7 11.3 23 14.5 S 7 13 4 7 - - 0.2
29/01:00pm 35.0 34.1 12.6 26 13.6 WNW 9 17 5 9 - - 0.2
29/12:30pm 34.8 33.9 12.5 26 13.5 WSW 9 13 5 7 - - 0.2
29/12:00pm 33.6 32.2 10.9 25 13.3 ESE 9 17 5 9 - - 0.2
29/11:30am 33.6 32.9 12.0 27 12.9 NW 7 13 4 7 - - 0.2
29/11:00am 32.9 32.4 12.0 28 12.4 S 6 9 3 5 - - 0.2
29/10:30am 31.3 30.4 12.6 31 11.2 WSW 9 15 5 8 - - 0.2
29/10:00am 30.4 29.6 12.8 34 10.5 SSE 9 13 5 7 - - 0.2
29/09:30am 29.0 28.4 13.6 38 9.3 SSE 9 15 5 8 - - 0.2
29/09:00am 28.1 28.5 15.4 46 7.8 ESE 7 13 4 7 - - 2.8
29/08:30am 26.4 26.4 15.1 49 6.9 SSE 9 15 5 8 - - 2.8
29/08:00am 24.9 24.8 15.0 54 6.0 SSE 9 13 5 7 - - 2.8
29/07:30am 22.9 23.0 14.5 59 5.0 SSE 7 13 4 7 - - 2.8
29/07:00am 20.5 22.3 15.5 73 3.0 CALM 0 4 0 2 - - 2.8
29/06:30am 18.6 20.5 15.8 84 1.7 CALM 0 0 0 0 - - 2.8
29/06:00am 18.3 20.3 15.9 86 1.4 CALM 0 6 0 3 - - 2.8
29/05:30am 18.5 20.5 15.9 85 1.6 CALM 0 0 0 0 - - 2.8
29/05:00am 19.4 21.5 16.2 82 1.9 CALM 0 0 0 0 - - 2.8
29/04:30am 19.7 21.5 15.6 77 2.5 CALM 0 0 0 0 - - 2.8
29/04:00am 20.4 22.4 16.0 76 2.7 CALM 0 0 0 0 - - 2.8
29/03:30am 21.0 23.1 16.2 74 2.9 CALM 0 0 0 0 - - 2.8
29/03:00am 22.4 22.7 14.5 61 4.7 N 6 9 3 5 - - 2.8
29/02:30am 22.9 22.8 15.0 61 4.7 NNE 9 15 5 8 - - 2.8
29/02:00am 20.3 21.2 16.5 79 2.3 NNE 7 17 4 9 - - 2.8
29/01:30am 19.1 21.1 16.0 82 1.9 CALM 0 0 0 0 - - 2.8
29/01:00am 19.3 21.1 15.6 79 2.2 CALM 0 0 0 0 - - 2.8
29/12:30am 20.0 21.9 15.8 77 2.5 CALM 0 0 0 0 - - 2.8
29/12:00am 20.1 22.4 16.7 81 2.1 CALM 0 0 0 0 - - 2.8
 
Date/Time
WST
Temp
°C
App
Temp
°C
Dew
Point
Rel
Hum
%
Delta-T
°C
Wind Press
QNH
hPa
Press
MSL
hPa
Rain
since 9 am
mm
Dir
 
Spd
km/h
Gust
km/h
Spd
kts
Gust
kts
28/11:30pm 20.3 22.5 16.5 79 2.3 CALM 0 0 0 0 - - 2.8
28/11:00pm 20.4 22.4 16.0 76 2.7 CALM 0 0 0 0 - - 2.8
28/10:30pm 20.9 22.7 15.4 71 3.3 CALM 0 0 0 0 - - 2.8
28/10:00pm 22.8 23.3 15.1 62 4.6 ESE 6 9 3 5 - - 2.8
28/09:30pm 23.1 24.4 16.2 65 4.2 ESE 4 7 2 4 - - 2.8
28/09:00pm 24.5 24.8 14.6 54 5.9 ESE 6 11 3 6 - - 2.8
28/08:30pm 24.8 25.2 15.4 56 5.7 SE 7 11 4 6 - - 2.8
28/08:00pm 23.9 25.7 18.3 71 3.6 ESE 6 11 3 6 - - 2.8
28/07:30pm 24.3 26.6 17.8 67 4.1 SSW 2 7 1 4 - - 2.8
28/07:00pm 25.4 27.2 17.3 61 5.1 SSW 4 7 2 4 - - 2.8
28/06:30pm 27.6 27.9 14.9 45 7.7 ESE 7 11 4 6 - - 2.8
28/06:00pm 28.8 28.6 14.6 42 8.7 ESE 9 17 5 9 - - 2.8
28/05:30pm 29.7 29.6 15.0 40 9.1 ESE 9 13 5 7 - - 2.8
28/05:00pm 27.2 27.0 16.8 53 6.5 ESE 13 20 7 11 - - 2.8
28/04:30pm 29.3 26.2 10.4 31 10.8 NNE 17 39 9 21 - - 0.0
28/04:00pm 26.4 21.2 10.1 36 9.1 ENE 28 48 15 26 - - 0.0
28/03:53pm 27.9 22.7 10.1 33 10.1 E 28 52 15 28 - - 0.0
28/03:51pm 29.6 24.9 10.7 31 10.9 ENE 26 52 14 28 - - 0.0
28/03:30pm 34.7 33.6 11.8 25 13.7 NW 9 15 5 8 - - 0.0
28/03:00pm 37.1 35.6 10.4 20 15.8 SSE 9 13 5 7 - - 0.0
28/02:30pm 37.5 34.9 10.7 20 15.9 WSW 15 24 8 13 - - 0.0
28/02:00pm 38.0 34.7 9.6 18 16.7 W 17 28 9 15 - - 0.0
28/01:30pm 37.0 33.9 10.3 20 15.8 NW 17 30 9 16 - - 0.0
28/01:00pm 37.0 35.9 13.1 24 14.7 NW 11 24 6 13 - - 0.0
28/12:30pm 36.7 34.1 10.8 21 15.4 WNW 15 28 8 15 - - 0.0
28/12:00pm 35.9 34.3 11.5 23 14.6 W 11 19 6 10 - - 0.0
28/11:30am 34.5 32.0 11.0 24 13.9 NNW 15 28 8 15 - - 0.0
28/11:00am 35.1 31.8 10.9 23 14.3 NW 19 32 10 17 - - 0.0
28/10:30am 34.7 32.4 10.5 23 14.2 N 13 24 7 13 - - 0.0
28/10:00am 33.3 31.6 10.0 24 13.5 N 9 15 5 8 - - 0.0
28/09:30am 31.2 28.6 9.4 26 12.4 NNE 13 26 7 14 - - 0.0
28/09:00am 30.3 28.1 9.2 27 11.9 N 11 22 6 12 - - 0.0
28/08:30am 29.2 27.4 9.3 29 11.2 N 9 20 5 11 - - 0.0
28/08:00am 26.0 26.1 11.4 40 8.4 S 2 7 1 4 - - 0.0
28/07:30am 22.5 23.3 12.4 52 5.8 CALM 0 0 0 0 - - 0.0
28/07:00am 22.9 23.5 11.9 50 6.3 CALM 0 0 0 0 - - 0.0
28/06:30am 21.9 21.6 11.6 52 5.8 S 4 6 2 3 - - 0.0
28/06:00am 20.8 20.5 10.0 50 5.9 S 2 6 1 3 - - 0.0
28/05:30am 20.4 19.8 10.5 53 5.4 SSE 4 7 2 4 - - 0.0
28/05:00am 20.6 19.9 10.1 51 5.7 SSE 4 9 2 5 - - 0.0
28/04:30am 19.6 19.3 10.0 54 5.2 SSW 2 6 1 3 - - 0.0
28/04:00am 19.3 19.0 10.0 55 5.0 SE 2 6 1 3 - - 0.0
28/03:30am 18.6 18.6 9.7 56 4.8 CALM 0 0 0 0 - - 0.0
28/03:00am 18.6 18.5 9.4 55 4.9 CALM 0 0 0 0 - - 0.0
28/02:30am 19.6 19.4 9.2 51 5.5 CALM 0 0 0 0 - - 0.0
28/02:00am 22.2 21.2 9.0 43 7.1 SE 4 7 2 4 - - 0.0
28/01:30am 22.5 21.0 9.0 42 7.3 ESE 7 13 4 7 - - 0.0
28/01:00am 23.9 22.2 8.3 37 8.4 SE 7 11 4 6 - - 0.0
28/12:30am 24.9 23.2 8.4 35 8.9 ESE 7 13 4 7 - - 0.0
28/12:00am 24.1 22.6 8.5 37 8.4 SE 6 9 3 5 - - 0.0
 
Date/Time
WST
Temp
°C
App
Temp
°C
Dew
Point
Rel
Hum
%
Delta-T
°C
Wind Press
QNH
hPa
Press
MSL
hPa
Rain
since 9 am
mm
Dir
 
Spd
km/h
Gust
km/h
Spd
kts
Gust
kts
27/11:30pm 26.0 24.3 8.5 33 9.5 SE 7 15 4 8 - - 0.0
27/11:00pm 26.6 25.0 8.6 32 9.9 ESE 7 13 4 7 - - 0.0
27/10:30pm 27.5 25.0 8.4 30 10.5 ESE 11 19 6 10 - - 0.0
27/10:00pm 28.4 25.6 8.7 29 10.9 ESE 13 26 7 14 - - 0.0
27/09:30pm 28.7 25.9 8.4 28 11.2 SE 13 28 7 15 - - 0.0
27/09:00pm 29.2 26.6 9.3 29 11.2 SE 13 20 7 11 - - 0.0
27/08:30pm 29.4 27.1 9.0 28 11.4 SE 11 22 6 12 - - 0.0
27/08:00pm 26.7 26.4 10.0 35 9.4 ESE 2 7 1 4 - - 0.0
27/07:30pm 29.1 29.0 9.3 29 11.1 CALM 0 0 0 0 - - 0.0
27/07:00pm 33.1 31.9 7.9 21 14.1 SSE 4 7 2 4 - - 0.0
27/06:30pm 34.9 32.3 6.2 17 15.8 SE 9 15 5 8 - - 0.0
27/06:00pm 35.6 33.9 5.9 16 16.3 S 4 11 2 6 - - 0.0
27/05:30pm 35.7 32.9 5.1 15 16.6 ESE 9 13 5 7 - - 0.0
27/05:00pm 37.0 34.8 6.1 15 17.1 S 7 17 4 9 - - 0.0
27/04:30pm 36.4 34.1 5.6 15 16.9 SE 7 11 4 6 - - 0.0
27/04:00pm 36.6 33.7 6.7 16 16.7 ESE 11 20 6 11 - - 0.0
27/03:30pm 36.9 34.7 6.0 15 17.1 S 7 11 4 6 - - 0.0
27/03:00pm 36.1 33.4 7.2 17 16.2 W 11 17 6 9 - - 0.0
27/02:30pm 36.8 34.9 6.9 16 16.8 SW 6 13 3 7 - - 0.0
27/02:00pm 36.1 33.7 7.2 17 16.2 S 9 20 5 11 - - 0.0
27/01:30pm 35.8 33.2 6.1 16 16.4 SSE 9 20 5 11 - - 0.0
27/01:00pm 35.1 32.7 7.2 18 15.6 ESE 9 15 5 8 - - 0.0
27/12:30pm 34.5 31.5 5.9 17 15.6 S 11 19 6 10 - - 0.0
27/12:00pm 33.3 31.1 8.0 21 14.2 ESE 9 13 5 7 - - 0.0
27/11:30am 32.9 31.9 10.3 25 13.1 ENE 6 13 3 7 - - 0.0
27/11:00am 31.0 29.2 9.3 26 12.3 NE 9 13 5 7 - - 0.0
27/10:30am 29.4 28.2 11.5 33 10.4 E 9 20 5 11 - - 0.0
27/10:00am 27.6 25.6 10.3 34 9.8 E 11 20 6 11 - - 0.0
27/09:30am 26.5 24.4 11.0 38 8.8 ENE 13 22 7 12 - - 0.0
27/09:00am 24.6 23.1 10.5 41 7.9 E 9 15 5 8 - - 0.0
27/08:30am 22.5 21.0 11.9 51 6.0 E 11 19 6 10 - - 0.0
27/08:00am 21.0 20.4 12.4 58 4.9 ESE 7 11 4 6 - - 0.0
27/07:30am 18.5 17.7 11.8 65 3.7 ESE 7 19 4 10 - - 0.0
27/07:00am 16.6 15.8 11.7 73 2.7 SE 7 11 4 6 - - 0.0
27/06:30am 15.2 14.6 11.6 79 2.0 SE 6 9 3 5 - - 0.0
27/06:00am 13.5 13.3 10.5 82 1.6 SE 2 6 1 3 - - 0.0
27/05:30am 13.5 13.5 9.9 79 1.9 CALM 0 6 0 3 - - 0.0
27/05:00am 14.3 13.7 10.3 77 2.1 ESE 4 7 2 4 - - 0.0
27/04:30am 14.8 13.9 10.6 76 2.2 SE 6 6 3 3 - - 0.0
27/04:00am 15.4 14.8 10.4 72 2.7 ESE 4 6 2 3 - - 0.0
27/03:30am 16.2 15.1 10.7 70 3.0 SE 7 9 4 5 - - 0.0
27/03:00am 16.7 15.6 10.5 67 3.3 ESE 7 13 4 7 - - 0.0
27/02:30am 17.2 16.1 10.6 65 3.6 ESE 7 11 4 6 - - 0.0
27/02:00am 17.9 17.0 10.5 62 4.0 SE 6 11 3 6 - - 0.0
27/01:30am 18.5 17.4 10.6 60 4.3 ESE 7 11 4 6 - - 0.0
27/01:00am 19.0 17.4 10.3 57 4.7 ESE 9 13 5 7 - - 0.0
27/12:30am 20.0 18.4 10.1 53 5.4 ESE 9 17 5 9 - - 0.0
27/12:00am 20.7 19.5 10.2 51 5.7 SE 7 11 4 6 - - 0.0
 
Date/Time
WST
Temp
°C
App
Temp
°C
Dew
Point
Rel
Hum
%
Delta-T
°C
Wind Press
QNH
hPa
Press
MSL
hPa
Rain
since 9 am
mm
Dir
 
Spd
km/h
Gust
km/h
Spd
kts
Gust
kts
26/11:30pm 21.8 19.8 10.0 47 6.5 ESE 11 22 6 12 - - 0.0
26/11:00pm 22.4 21.1 9.9 45 6.8 E 7 13 4 7 - - 0.0
26/10:30pm 23.5 21.3 9.5 41 7.7 ESE 11 22 6 12 - - 0.0

Other Formats:

Comma delimited format used in spreadsheet applications
http://www.bom.gov.au/fwo/IDW60801/IDW60801.95621.axf

JavaScript Object Notation format (JSON) in row-major order
http://www.bom.gov.au/fwo/IDW60801/IDW60801.95621.json